Time;durP1;ratioP1;P1;durP2;ratioP2;P2;SDS_P1;SDS_P2;PMS_P1;PMS_P2;Temp;Humidity;BMP_temperature;BMP_pressure;BME280_temperature;BME280_humidity;BME280_pressure;Samples;Min_cycle;Max_cycle;Signal;HPM_P1;HPM_P2
2022/12/09 00:01:07;;;;;;;;;;;;;;;4.52;62.23;99751.09;5038657;28;20392;-53
2022/12/09 00:03:32;;;;;;;;;;;;;;;4.26;62.53;99755.59;5037423;28;20277;-50
2022/12/09 00:05:58;;;;;;;;;;;;;;;4.42;62.51;99754.63;5037074;28;19936;-51
2022/12/09 00:08:23;;;;;;;;;;;;;;;4.59;62.48;99760.59;5036407;28;19932;-53
2022/12/09 00:10:48;;;;;;;;;;;;;;;4.56;61.66;99759.75;5037555;28;20288;-51
2022/12/09 00:13:13;;;;;;;;;;;;;;;4.59;61.56;99752.78;5038195;28;19925;-50
2022/12/09 00:15:40;;;;;;;;;;;;;;;4.66;61.16;99761.38;5051719;28;19925;-51
2022/12/09 00:18:06;;;;;;;;;;;;;;;4.36;61.75;99757.28;5049934;28;20015;-53
2022/12/09 00:20:31;;;;;;;;;;;;;;;4.54;61.83;99762.34;5051206;28;19925;-52
2022/12/09 00:22:56;;;;;;;;;;;;;;;4.59;61.75;99764.94;5049525;28;19957;-52
2022/12/09 00:25:21;;;;;;;;;;;;;;;4.54;61.62;99764.09;5037897;28;20293;-52
2022/12/09 00:27:47;;;;;;;;;;;;;;;4.53;61.87;99762.38;5037064;28;19932;-54
2022/12/09 00:30:12;;;;;;;;;;;;;;;4.37;61.75;99765.06;5038048;28;19925;-52
2022/12/09 00:32:37;;;;;;;;;;;;;;;4.50;61.40;99763.25;5050440;28;19927;-52
2022/12/09 00:35:03;;;;;;;;;;;;;;;4.51;61.77;99761.50;5049958;28;19924;-53
2022/12/09 00:37:28;;;;;;;;;;;;;;;4.45;61.30;99768.47;5051402;28;19925;-56
2022/12/09 00:39:54;;;;;;;;;;;;;;;4.44;61.25;99771.09;5049815;28;19977;-55
2022/12/09 00:42:19;;;;;;;;;;;;;;;4.27;60.82;99778.13;5042332;28;19948;-52
2022/12/09 00:44:44;;;;;;;;;;;;;;;4.32;61.09;99787.66;5037283;28;19925;-52
2022/12/09 00:47:09;;;;;;;;;;;;;;;4.36;61.17;99796.31;5038071;28;19925;-54
2022/12/09 00:49:35;;;;;;;;;;;;;;;4.12;60.23;99803.34;5035354;28;19932;-53
2022/12/09 00:52:00;;;;;;;;;;;;;;;4.34;60.16;99795.44;5036680;28;19926;-52
2022/12/09 00:54:25;;;;;;;;;;;;;;;4.52;59.83;99794.47;5037059;28;19925;-50
2022/12/09 00:56:50;;;;;;;;;;;;;;;4.58;59.74;99802.22;5036625;28;19925;-51
2022/12/09 00:59:16;;;;;;;;;;;;;;;4.55;59.62;99799.63;5037635;28;20419;-55
2022/12/09 01:01:41;;;;;;;;;;;;;;;4.53;59.27;99806.59;5035140;28;19929;-51
2022/12/09 01:04:09;;;;;;;;;;;;;;;4.54;58.90;99803.13;5037760;28;19929;-52
2022/12/09 01:06:34;;;;;;;;;;;;;;;4.61;58.98;99800.47;5051072;28;20368;-51
2022/12/09 01:09:00;;;;;;;;;;;;;;;4.50;58.86;99807.47;5049405;28;19975;-51
2022/12/09 01:11:26;;;;;;;;;;;;;;;4.58;58.79;99802.22;5036497;28;19987;-51
2022/12/09 01:13:52;;;;;;;;;;;;;;;4.55;58.99;99804.84;5036286;28;19921;-54
2022/12/09 01:16:19;;;;;;;;;;;;;;;4.52;58.64;99807.47;5037637;28;19924;-51
2022/12/09 01:18:45;;;;;;;;;;;;;;;4.53;57.91;99801.41;5036044;28;20340;-52
2022/12/09 01:21:10;;;;;;;;;;;;;;;4.56;57.89;99803.97;5037188;28;20072;-51
2022/12/09 01:23:36;;;;;;;;;;;;;;;4.66;58.13;99803.03;5041526;28;20385;-52
2022/12/09 01:26:02;;;;;;;;;;;;;;;4.53;58.34;99804.84;5048900;28;19974;-50
2022/12/09 01:28:27;;;;;;;;;;;;;;;4.58;57.94;99808.28;5050396;28;20058;-52
2022/12/09 01:30:53;;;;;;;;;;;;;;;4.73;57.66;99809.06;5049971;28;20011;-50
2022/12/09 01:33:18;;;;;;;;;;;;;;;4.79;57.55;99814.22;5049128;28;20376;-53
2022/12/09 01:35:43;;;;;;;;;;;;;;;4.70;57.98;99805.59;5050259;28;19992;-55
2022/12/09 01:38:08;;;;;;;;;;;;;;;4.77;57.68;99800.34;5047767;28;19994;-51
2022/12/09 01:40:34;;;;;;;;;;;;;;;4.76;58.19;99804.72;5036150;28;19933;-51
2022/12/09 01:42:59;;;;;;;;;;;;;;;4.69;58.41;99813.44;5036832;28;20022;-53
2022/12/09 01:45:30;;;;;;;;;;;;;;;4.72;58.54;99813.41;5035990;28;19925;-50
2022/12/09 01:47:55;;;;;;;;;;;;;;;4.84;59.14;99805.50;5036122;28;19921;-51
2022/12/09 01:50:21;;;;;;;;;;;;;;;4.99;58.88;99812.34;5036349;28;20016;-51
2022/12/09 01:52:48;;;;;;;;;;;;;;;5.08;58.51;99817.47;5035874;28;20420;-53
2022/12/09 01:55:13;;;;;;;;;;;;;;;5.11;58.26;99821.81;5046024;28;20368;-51
2022/12/09 01:57:39;;;;;;;;;;;;;;;5.17;58.54;99808.72;5034327;28;19956;-52
2022/12/09 02:00:05;;;;;;;;;;;;;;;5.28;58.62;99819.91;5036695;28;20019;-51
2022/12/09 02:02:31;;;;;;;;;;;;;;;5.34;58.19;99818.97;5035551;28;19932;-52
2022/12/09 02:04:57;;;;;;;;;;;;;;;5.44;58.25;99818.03;5046998;28;19921;-54
2022/12/09 02:07:23;;;;;;;;;;;;;;;5.46;58.08;99816.25;5049641;28;19925;-55
2022/12/09 02:09:51;;;;;;;;;;;;;;;5.29;56.66;99818.16;5049963;28;19943;-55
2022/12/09 02:12:37;;;;;;;;;;;;;;;4.99;54.82;99817.56;5038912;28;20384;-53
2022/12/09 02:15:08;;;;;;;;;;;;;;;4.98;55.61;99813.19;5032693;28;20443;-52
2022/12/09 02:17:34;;;;;;;;;;;;;;;4.97;54.91;99813.22;5034460;28;19921;-51
2022/12/09 02:20:11;;;;;;;;;;;;;;;4.88;55.45;99803.75;5036455;28;20249;-53
2022/12/09 02:22:42;;;;;;;;;;;;;;;4.90;55.68;99804.59;5041667;28;19944;-54
2022/12/09 02:25:21;;;;;;;;;;;;;;;5.02;56.06;99809.69;5035225;28;19940;-50
2022/12/09 02:28:06;;;;;;;;;;;;;;;5.04;55.17;99809.72;5041337;28;20475;-50
2022/12/09 02:30:55;;;;;;;;;;;;;;;5.15;55.65;99813.94;5036698;28;20381;-52
2022/12/09 02:33:43;;;;;;;;;;;;;;;5.15;56.47;99818.28;5033442;28;19979;-52
2022/12/09 02:36:13;;;;;;;;;;;;;;;5.07;56.30;99823.56;5036526;28;19928;-54
2022/12/09 02:38:40;;;;;;;;;;;;;;;4.99;56.77;99821.88;5036860;28;19924;-54
2022/12/09 02:41:08;;;;;;;;;;;;;;;4.99;57.21;99821.88;5047158;28;20031;-53
2022/12/09 02:43:36;;;;;;;;;;;;;;;4.99;57.35;99819.28;5049160;28;19998;-56
2022/12/09 02:46:03;;;;;;;;;;;;;;;4.98;57.32;99823.63;5034901;28;19921;-57
2022/12/09 02:48:35;;;;;;;;;;;;;;;4.95;57.03;99826.28;5035612;28;19932;-54
2022/12/09 02:51:06;;;;;;;;;;;;;;;4.84;56.99;99826.34;5036704;28;20284;-53
2022/12/09 02:53:31;;;;;;;;;;;;;;;4.92;57.29;99819.34;5034353;28;20043;-54
2022/12/09 02:55:57;;;;;;;;;;;;;;;4.92;57.14;99816.72;5036105;28;20415;-55
2022/12/09 02:58:22;;;;;;;;;;;;;;;4.91;57.18;99815.00;5046624;28;20022;-54
2022/12/09 03:00:50;;;;;;;;;;;;;;;4.81;57.15;99813.34;5049426;28;19925;-54
2022/12/09 03:03:17;;;;;;;;;;;;;;;4.75;57.47;99820.31;5037550;28;20303;-54
2022/12/09 03:05:48;;;;;;;;;;;;;;;4.74;57.84;99816.00;5037717;28;19925;-54
2022/12/09 03:08:16;;;;;;;;;;;;;;;4.69;58.03;99814.28;5049424;28;20368;-55
2022/12/09 03:10:44;;;;;;;;;;;;;;;4.72;58.07;99817.75;5041883;28;19932;-53
2022/12/09 03:13:17;;;;;;;;;;;;;;;4.75;58.18;99809.91;5039709;28;19935;-53
2022/12/09 03:15:47;;;;;;;;;;;;;;;4.72;57.79;99818.63;5047208;28;19921;-55
2022/12/09 03:18:15;;;;;;;;;;;;;;;4.73;58.08;99811.66;5037870;28;19929;-55
2022/12/09 03:20:41;;;;;;;;;;;;;;;4.69;57.87;99816.88;5038742;28;20273;-54
2022/12/09 03:23:08;;;;;;;;;;;;;;;4.65;57.84;99814.31;5045155;28;20387;-55
2022/12/09 03:25:38;;;;;;;;;;;;;;;4.61;57.82;99810.88;5054562;28;19920;-54
2022/12/09 03:28:04;;;;;;;;;;;;;;;4.53;57.83;99809.19;5044007;28;19917;-55
2022/12/09 03:30:31;;;;;;;;;;;;;;;4.41;57.82;99812.72;5042698;28;19936;-54
2022/12/09 03:32:57;;;;;;;;;;;;;;;4.37;58.27;99816.22;5038402;28;20369;-51
2022/12/09 03:35:25;;;;;;;;;;;;;;;4.34;58.40;99814.50;5038637;28;19933;-52
2022/12/09 03:37:50;;;;;;;;;;;;;;;4.39;58.56;99814.50;5038477;28;19917;-51
2022/12/09 03:40:18;;;;;;;;;;;;;;;4.40;58.66;99818.81;5038591;28;19932;-51
2022/12/09 03:42:55;;;;;;;;;;;;;;;4.32;58.47;99810.19;5036623;28;20032;-50
2022/12/09 03:45:22;;;;;;;;;;;;;;;4.23;58.89;99808.50;5037861;28;19936;-50
2022/12/09 03:47:48;;;;;;;;;;;;;;;4.21;59.13;99815.44;5038447;28;19936;-50
2022/12/09 03:50:13;;;;;;;;;;;;;;;4.16;58.68;99817.22;5046344;28;19929;-52
2022/12/09 03:52:40;;;;;;;;;;;;;;;4.09;58.98;99820.69;5052463;28;19987;-52
2022/12/09 03:55:15;;;;;;;;;;;;;;;4.01;58.90;99812.94;5048335;28;19920;-51
2022/12/09 03:57:44;;;;;;;;;;;;;;;3.93;59.22;99818.16;5051314;28;20728;-50
2022/12/09 04:00:09;;;;;;;;;;;;;;;3.56;61.21;99820.00;5048812;28;19927;-51
2022/12/09 04:02:35;;;;;;;;;;;;;;;3.47;61.53;99814.81;5037738;28;19921;-52
2022/12/09 04:05:00;;;;;;;;;;;;;;;3.41;61.63;99825.22;5038523;28;19921;-50
2022/12/09 04:07:25;;;;;;;;;;;;;;;3.31;61.68;99826.09;5036898;28;19925;-51
2022/12/09 04:09:51;;;;;;;;;;;;;;;3.22;62.25;99827.81;5037577;28;20348;-52
2022/12/09 04:12:16;;;;;;;;;;;;;;;3.09;62.73;99841.69;5038218;28;19928;-53
2022/12/09 04:14:41;;;;;;;;;;;;;;;3.11;62.69;99837.38;5036610;28;19943;-55
2022/12/09 04:17:06;;;;;;;;;;;;;;;3.10;63.04;99839.94;5038692;28;20401;-53
2022/12/09 04:19:32;;;;;;;;;;;;;;;3.08;63.11;99845.16;5036681;28;19964;-55
2022/12/09 04:21:57;;;;;;;;;;;;;;;3.31;62.94;99846.84;5037595;28;19925;-52
2022/12/09 04:24:22;;;;;;;;;;;;;;;3.35;62.52;99835.59;5036974;28;19994;-51
2022/12/09 04:26:48;;;;;;;;;;;;;;;3.34;62.39;99852.06;5037294;28;19978;-53
2022/12/09 04:29:13;;;;;;;;;;;;;;;3.34;62.47;99846.88;5038524;28;19917;-54
2022/12/09 04:31:38;;;;;;;;;;;;;;;3.40;62.48;99842.53;5035943;28;19920;-54
2022/12/09 04:34:03;;;;;;;;;;;;;;;3.28;62.84;99841.69;5037266;28;19925;-53
2022/12/09 04:36:29;;;;;;;;;;;;;;;3.32;62.41;99840.81;5038720;28;19928;-53
2022/12/09 04:38:54;;;;;;;;;;;;;;;3.19;62.28;99847.72;5035550;28;20364;-52
2022/12/09 04:41:19;;;;;;;;;;;;;;;3.30;62.33;99853.78;5037615;28;19925;-55
2022/12/09 04:43:45;;;;;;;;;;;;;;;3.29;62.33;99852.06;5043673;28;20369;-52
2022/12/09 04:46:11;;;;;;;;;;;;;;;3.22;62.59;99853.78;5037086;28;19990;-50
2022/12/09 04:48:36;;;;;;;;;;;;;;;3.29;62.24;99862.44;5051667;28;19920;-51
2022/12/09 04:51:02;;;;;;;;;;;;;;;3.28;62.25;99863.31;5048501;28;20008;-55
2022/12/09 04:53:27;;;;;;;;;;;;;;;3.14;62.07;99860.72;5035125;28;20368;-55
2022/12/09 04:56:00;;;;;;;;;;;;;;;2.94;62.19;99865.03;5034282;28;19925;-54
2022/12/09 04:58:25;;;;;;;;;;;;;;;2.89;62.42;99861.56;5047103;28;19920;-51
2022/12/09 05:00:50;;;;;;;;;;;;;;;2.95;62.19;99864.16;5049422;28;19932;-50
2022/12/09 05:03:15;;;;;;;;;;;;;;;3.14;61.81;99862.44;5047219;28;19983;-54
2022/12/09 05:05:41;;;;;;;;;;;;;;;3.22;61.26;99865.91;5043704;28;19935;-54
2022/12/09 05:08:06;;;;;;;;;;;;;;;3.13;61.66;99866.78;5037130;28;19921;-53
2022/12/09 05:10:31;;;;;;;;;;;;;;;3.06;61.17;99865.03;5034568;28;19964;-54
2022/12/09 05:12:57;;;;;;;;;;;;;;;3.18;61.04;99865.03;5037042;28;19925;-55
2022/12/09 05:15:22;;;;;;;;;;;;;;;3.22;60.65;99866.78;5039063;28;19987;-54
2022/12/09 05:17:47;;;;;;;;;;;;;;;3.13;60.23;99871.97;5035503;28;19925;-55
2022/12/09 05:20:12;;;;;;;;;;;;;;;3.07;60.32;99861.59;5047605;28;19921;-53
2022/12/09 05:22:38;;;;;;;;;;;;;;;3.10;60.40;99864.19;5036968;28;19971;-53
2022/12/09 05:25:03;;;;;;;;;;;;;;;3.20;60.50;99865.94;5039231;28;19932;-55
2022/12/09 05:27:29;;;;;;;;;;;;;;;3.29;60.29;99877.19;5044868;28;20054;-53
2022/12/09 05:29:54;;;;;;;;;;;;;;;3.46;59.81;99870.22;5040441;28;20007;-54
2022/12/09 05:32:20;;;;;;;;;;;;;;;3.51;59.64;99868.50;5032129;28;19925;-51
2022/12/09 05:34:45;;;;;;;;;;;;;;;3.42;59.58;99869.34;5039052;28;19933;-54
2022/12/09 05:37:14;;;;;;;;;;;;;;;3.35;59.65;99866.78;5034679;28;19964;-49
2022/12/09 05:39:39;;;;;;;;;;;;;;;3.14;59.33;99867.66;5045042;28;20292;-50
2022/12/09 05:42:05;;;;;;;;;;;;;;;2.93;59.66;99874.56;5041025;28;19925;-56
2022/12/09 05:44:30;;;;;;;;;;;;;;;3.05;59.47;99872.84;5048678;28;20031;-49
2022/12/09 05:46:56;;;;;;;;;;;;;;;3.04;59.71;99871.97;5044378;28;20073;-53
2022/12/09 05:49:21;;;;;;;;;;;;;;;3.17;59.48;99872.84;5042919;28;21628;-51
2022/12/09 05:51:47;;;;;;;;;;;;;;;3.05;59.27;99870.25;5041673;28;19925;-50
2022/12/09 05:54:12;;;;;;;;;;;;;;;3.18;59.04;99869.38;5038857;28;19979;-52
2022/12/09 05:56:37;;;;;;;;;;;;;;;3.31;58.92;99873.72;5036299;28;19929;-50
2022/12/09 05:59:02;;;;;;;;;;;;;;;3.36;58.92;99876.31;5040152;28;19925;-53
2022/12/09 06:01:28;;;;;;;;;;;;;;;3.45;58.58;99871.97;5035862;28;19925;-53
2022/12/09 06:03:53;;;;;;;;;;;;;;;3.23;58.87;99872.81;5034260;28;20400;-54
2022/12/09 06:06:19;;;;;;;;;;;;;;;3.15;59.25;99875.44;5036361;28;19921;-52
2022/12/09 06:08:45;;;;;;;;;;;;;;;3.00;59.89;99874.56;5041933;28;20369;-51
2022/12/09 06:11:11;;;;;;;;;;;;;;;2.88;60.17;99875.44;5037616;28;19928;-52
2022/12/09 06:13:37;;;;;;;;;;;;;;;2.93;60.29;99871.09;5036735;28;20454;-54
2022/12/09 06:16:03;;;;;;;;;;;;;;;2.84;60.46;99877.16;5049924;28;19934;-51
2022/12/09 06:18:28;;;;;;;;;;;;;;;2.84;60.82;99878.88;5048439;28;19952;-52
2022/12/09 06:20:53;;;;;;;;;;;;;;;2.86;60.79;99892.69;5041173;28;19925;-55
2022/12/09 06:23:19;;;;;;;;;;;;;;;3.04;60.39;99881.50;5036345;28;20007;-55
2022/12/09 06:25:44;;;;;;;;;;;;;;;2.99;60.18;99884.06;5034739;28;20331;-53
2022/12/09 06:28:10;;;;;;;;;;;;;;;3.11;60.16;99883.22;5045553;28;19924;-53
2022/12/09 06:30:35;;;;;;;;;;;;;;;3.25;60.28;99883.22;5052145;28;19925;-54
2022/12/09 06:33:00;;;;;;;;;;;;;;;3.49;60.41;99890.16;5042338;28;19920;-53
2022/12/09 06:35:25;;;;;;;;;;;;;;;3.53;58.97;99891.88;5043555;28;19932;-51
2022/12/09 06:37:52;;;;;;;;;;;;;;;3.52;58.66;99885.81;5036506;28;20499;-53
2022/12/09 06:40:17;;;;;;;;;;;;;;;3.50;58.75;99892.72;5048837;28;19924;-50
2022/12/09 06:42:42;;;;;;;;;;;;;;;3.45;58.40;99899.69;5049583;28;19971;-55
2022/12/09 06:45:08;;;;;;;;;;;;;;;3.32;58.95;99893.63;5050022;28;20226;-51
2022/12/09 06:47:33;;;;;;;;;;;;;;;3.15;58.94;99904.00;5038919;28;19925;-50
2022/12/09 06:50:00;;;;;;;;;;;;;;;3.08;59.61;99896.22;5038605;28;20363;-52
2022/12/09 06:52:26;;;;;;;;;;;;;;;3.05;59.94;99894.47;5039161;28;19926;-51
2022/12/09 06:54:51;;;;;;;;;;;;;;;3.07;60.09;99895.34;5039868;28;20381;-50
2022/12/09 06:57:16;;;;;;;;;;;;;;;3.12;59.98;99905.72;5038929;28;19932;-49
2022/12/09 06:59:41;;;;;;;;;;;;;;;3.08;60.05;99902.25;5038702;28;19975;-53
2022/12/09 07:02:08;;;;;;;;;;;;;;;3.14;59.65;99897.06;5043666;28;19921;-51
2022/12/09 07:04:33;;;;;;;;;;;;;;;3.07;59.75;99900.53;5049523;28;19917;-51
2022/12/09 07:06:59;;;;;;;;;;;;;;;3.09;59.75;99906.59;5051558;28;20303;-54
2022/12/09 07:09:24;;;;;;;;;;;;;;;3.21;59.81;99905.72;5052977;28;19920;-55
2022/12/09 07:11:50;;;;;;;;;;;;;;;3.16;59.85;99904.88;5044902;28;19968;-52
2022/12/09 07:14:16;;;;;;;;;;;;;;;3.22;59.70;99897.94;5040949;28;19940;-52
2022/12/09 07:16:42;;;;;;;;;;;;;;;3.21;59.58;99904.00;5050412;28;20291;-52
2022/12/09 07:19:15;;;;;;;;;;;;;;;3.11;59.61;99898.78;5051132;28;20024;-49
2022/12/09 07:21:40;;;;;;;;;;;;;;;3.20;59.54;99899.69;5052966;28;20008;-51
2022/12/09 07:24:05;;;;;;;;;;;;;;;3.26;59.23;99901.41;5048149;28;20028;-52
2022/12/09 07:26:31;;;;;;;;;;;;;;;3.25;59.09;99901.41;5036817;28;19921;-52
2022/12/09 07:28:56;;;;;;;;;;;;;;;3.37;58.98;99909.19;5041073;28;19936;-54
2022/12/09 07:31:23;;;;;;;;;;;;;;;3.35;58.76;99910.91;5043447;28;19921;-52
2022/12/09 07:33:49;;;;;;;;;;;;;;;3.40;58.78;99906.59;5037659;28;19925;-55
2022/12/09 07:36:14;;;;;;;;;;;;;;;3.41;59.00;99903.13;5038095;28;19975;-53
2022/12/09 07:38:39;;;;;;;;;;;;;;;3.49;58.57;99903.13;5038390;28;19917;-55
2022/12/09 07:41:08;;;;;;;;;;;;;;;3.53;58.42;99904.88;5039375;28;20336;-51
2022/12/09 07:43:34;;;;;;;;;;;;;;;3.55;58.38;99906.59;5037070;28;20373;-53
2022/12/09 07:46:04;;;;;;;;;;;;;;;3.60;58.41;99898.81;5039911;28;19929;-54
2022/12/09 07:48:29;;;;;;;;;;;;;;;3.68;58.27;99902.25;5038752;28;19918;-51
2022/12/09 07:50:58;;;;;;;;;;;;;;;3.49;58.63;99904.00;5043017;28;19948;-51
2022/12/09 07:53:23;;;;;;;;;;;;;;;3.15;59.15;99904.00;5052358;28;19948;-51
2022/12/09 07:55:48;;;;;;;;;;;;;;;3.33;59.24;99904.88;5050816;28;20376;-50
2022/12/09 07:58:14;;;;;;;;;;;;;;;3.43;59.16;99901.38;5051643;28;19920;-52
2022/12/09 08:00:39;;;;;;;;;;;;;;;3.41;59.54;99910.94;5051771;28;20372;-55
2022/12/09 08:03:04;;;;;;;;;;;;;;;3.63;59.34;99910.06;5038903;28;20029;-54
2022/12/09 08:05:29;;;;;;;;;;;;;;;3.81;58.88;99909.16;5037800;28;19925;-53
2022/12/09 08:07:55;;;;;;;;;;;;;;;3.75;58.77;99918.69;5038762;28;20015;-53
2022/12/09 08:10:20;;;;;;;;;;;;;;;3.73;58.51;99910.03;5037712;28;20396;-50
2022/12/09 08:12:45;;;;;;;;;;;;;;;3.63;58.70;99915.25;5037865;28;19932;-54
2022/12/09 08:15:11;;;;;;;;;;;;;;;3.48;58.97;99911.81;5036911;28;20024;-55
2022/12/09 08:17:36;;;;;;;;;;;;;;;3.59;59.02;99908.34;5049409;28;20392;-53
2022/12/09 08:20:01;;;;;;;;;;;;;;;3.51;59.09;99916.97;5045455;28;19967;-55
2022/12/09 08:22:26;;;;;;;;;;;;;;;3.58;59.26;99921.31;5036340;28;19925;-56
2022/12/09 08:24:52;;;;;;;;;;;;;;;3.76;58.75;99923.91;5038389;28;19921;-54
2022/12/09 08:27:17;;;;;;;;;;;;;;;3.78;58.82;99929.09;5036012;28;20307;-55
2022/12/09 08:29:42;;;;;;;;;;;;;;;3.99;58.38;99928.16;5037241;28;19925;-55
2022/12/09 08:32:08;;;;;;;;;;;;;;;4.17;58.13;99922.94;5039827;28;19929;-55
2022/12/09 08:34:33;;;;;;;;;;;;;;;4.41;57.80;99917.66;5035062;28;19921;-54
2022/12/09 08:36:58;;;;;;;;;;;;;;;4.65;57.25;99919.28;5037124;28;20407;-55
2022/12/09 08:39:23;;;;;;;;;;;;;;;4.83;56.41;99925.28;5041169;28;20059;-54
2022/12/09 08:41:49;;;;;;;;;;;;;;;4.77;55.96;99930.50;5037935;28;19968;-54
2022/12/09 08:44:15;;;;;;;;;;;;;;;4.86;55.78;99931.31;5035905;28;19925;-53
2022/12/09 08:46:42;;;;;;;;;;;;;;;4.89;56.15;99930.44;5035433;28;19950;-54
2022/12/09 08:49:08;;;;;;;;;;;;;;;5.12;56.04;99938.97;5051216;28;19924;-56
2022/12/09 08:51:33;;;;;;;;;;;;;;;5.22;55.56;99933.69;5040812;28;19948;-55
2022/12/09 08:53:59;;;;;;;;;;;;;;;5.32;55.20;99935.38;5037778;28;19937;-53
2022/12/09 08:56:24;;;;;;;;;;;;;;;5.39;55.06;99934.44;5044537;28;20363;-54
2022/12/09 08:58:50;;;;;;;;;;;;;;;5.25;54.71;99931.94;5049738;28;20025;-55
2022/12/09 09:01:17;;;;;;;;;;;;;;;5.11;55.01;99937.25;5050092;28;20003;-54
2022/12/09 09:03:42;;;;;;;;;;;;;;;5.21;55.30;99934.56;5048432;28;19972;-56
2022/12/09 09:06:07;;;;;;;;;;;;;;;5.30;55.26;99934.50;5049892;28;19960;-55
2022/12/09 09:08:33;;;;;;;;;;;;;;;5.39;55.46;99935.31;5051020;28;19920;-54
2022/12/09 09:10:58;;;;;;;;;;;;;;;5.48;55.29;99936.13;5048003;28;19987;-54
2022/12/09 09:13:24;;;;;;;;;;;;;;;5.53;55.35;99940.41;5050813;28;20352;-54
2022/12/09 09:15:49;;;;;;;;;;;;;;;5.68;54.64;99927.25;5049390;28;19970;-55
2022/12/09 09:18:14;;;;;;;;;;;;;;;5.76;54.35;99921.97;5050363;28;19925;-53
2022/12/09 09:20:46;;;;;;;;;;;;;;;5.87;54.17;99924.47;5050541;28;19925;-55
2022/12/09 09:23:15;;;;;;;;;;;;;;;5.87;54.00;99922.72;5050250;28;19998;-54
2022/12/09 09:25:41;;;;;;;;;;;;;;;5.83;54.25;99921.03;5050451;28;19934;-56
2022/12/09 09:28:06;;;;;;;;;;;;;;;5.83;54.17;99923.63;5048036;28;20020;-54
2022/12/09 09:30:31;;;;;;;;;;;;;;;5.89;54.38;99925.31;5049354;28;19921;-55
2022/12/09 09:32:56;;;;;;;;;;;;;;;5.92;54.40;99922.72;5048957;28;20066;-55
2022/12/09 09:35:22;;;;;;;;;;;;;;;5.90;54.11;99919.22;5048645;28;19932;-56
2022/12/09 09:37:47;;;;;;;;;;;;;;;6.00;54.37;99920.03;5049610;28;19925;-55
2022/12/09 09:40:12;;;;;;;;;;;;;;;6.11;54.14;99916.44;5049718;28;20357;-56
2022/12/09 09:42:46;;;;;;;;;;;;;;;6.20;53.36;99925.03;5050328;28;20020;-54
2022/12/09 09:45:14;;;;;;;;;;;;;;;6.27;53.21;99924.09;5049885;28;21530;-55
2022/12/09 09:47:46;;;;;;;;;;;;;;;6.33;52.88;99926.63;5050301;28;19921;-55
2022/12/09 09:50:11;;;;;;;;;;;;;;;6.26;52.87;99923.19;5049806;28;19927;-55
2022/12/09 09:52:37;;;;;;;;;;;;;;;6.34;53.08;99925.72;5050606;28;19925;-54
2022/12/09 09:55:25;;;;;;;;;;;;;;;6.40;53.09;99915.22;5048719;28;19990;-54
2022/12/09 09:57:51;;;;;;;;;;;;;;;6.45;52.99;99921.25;5037862;28;19921;-55
2022/12/09 10:00:25;;;;;;;;;;;;;;;6.48;53.11;99923.81;5037986;28;19928;-53
2022/12/09 10:03:01;;;;;;;;;;;;;;;6.54;52.76;99923.78;5048703;28;19927;-55
2022/12/09 10:05:34;;;;;;;;;;;;;;;6.57;52.65;99926.31;5035981;28;19921;-55
2022/12/09 10:08:11;;;;;;;;;;;;;;;6.60;52.73;99923.69;5036679;28;20353;-52
2022/12/09 10:10:51;;;;;;;;;;;;;;;6.68;53.07;99931.41;5035821;28;19921;-55
2022/12/09 10:13:16;;;;;;;;;;;;;;;6.73;52.61;99928.72;5052951;28;19921;-53
2022/12/09 10:16:08;;;;;;;;;;;;;;;6.79;52.33;99936.50;5053974;28;19932;-55
2022/12/09 10:18:39;;;;;;;;;;;;;;;6.72;52.73;99927.00;5023407;28;19927;-57
2022/12/09 10:21:16;;;;;;;;;;;;;;;6.71;52.94;99931.38;5042724;28;19920;-55
2022/12/09 10:23:42;;;;;;;;;;;;;;;6.69;52.95;99933.13;5040573;28;19921;-53
2022/12/09 10:26:12;;;;;;;;;;;;;;;6.76;52.95;99924.34;5048580;28;19953;-54
2022/12/09 10:28:40;;;;;;;;;;;;;;;6.78;52.72;99921.69;5039385;28;19917;-55
2022/12/09 10:31:09;;;;;;;;;;;;;;;6.78;52.57;99917.38;5047295;28;19928;-52
2022/12/09 10:33:35;;;;;;;;;;;;;;;6.77;52.25;99918.22;5039366;28;19924;-55
2022/12/09 10:36:01;;;;;;;;;;;;;;;6.79;52.27;99920.84;5040507;28;19921;-55
2022/12/09 10:38:28;;;;;;;;;;;;;;;6.83;52.21;99928.59;5039334;28;19932;-56
2022/12/09 10:40:53;;;;;;;;;;;;;;;6.83;52.31;99920.75;5038754;28;20380;-54
2022/12/09 10:43:35;;;;;;;;;;;;;;;6.88;52.57;99923.31;5039188;28;19936;-55
2022/12/09 10:46:08;;;;;;;;;;;;;;;6.91;52.82;99926.75;5044711;28;19922;-55
2022/12/09 10:48:36;;;;;;;;;;;;;;;7.03;52.12;99923.09;5046477;28;20001;-55
2022/12/09 10:51:25;;;;;;;;;;;;;;;7.05;51.82;99926.53;5050680;28;19921;-55
2022/12/09 10:53:50;;;;;;;;;;;;;;;7.09;51.45;99917.78;5049560;28;20273;-56
2022/12/09 10:56:26;;;;;;;;;;;;;;;7.12;51.32;99930.78;5038855;28;19928;-56
2022/12/09 10:59:08;;;;;;;;;;;;;;;7.18;51.48;99936.81;5038067;28;19927;-56
2022/12/09 11:01:50;;;;;;;;;;;;;;;7.18;51.30;99939.41;5036006;28;20380;-55
2022/12/09 11:04:20;;;;;;;;;;;;;;;7.15;51.14;99937.72;5053053;28;19927;-53
2022/12/09 11:06:45;;;;;;;;;;;;;;;7.14;51.45;99931.66;5052933;28;19928;-55
2022/12/09 11:09:19;;;;;;;;;;;;;;;7.10;51.64;99929.06;5039669;28;19925;-54
2022/12/09 11:11:48;;;;;;;;;;;;;;;7.01;52.09;99937.91;5050432;28;19928;-55
2022/12/09 11:14:22;;;;;;;;;;;;;;;7.06;51.95;99930.91;5052519;28;19936;-53
2022/12/09 11:16:48;;;;;;;;;;;;;;;6.96;51.99;99929.28;5051925;28;19999;-55
2022/12/09 11:19:14;;;;;;;;;;;;;;;6.95;51.79;99931.94;5052553;28;20392;-54
2022/12/09 11:21:39;;;;;;;;;;;;;;;7.02;51.83;99930.94;5047045;28;19957;-55
2022/12/09 11:24:18;;;;;;;;;;;;;;;7.12;51.69;99925.56;5047422;28;19921;-54
2022/12/09 11:26:43;;;;;;;;;;;;;;;7.26;51.13;99927.09;5046589;28;20388;-55
2022/12/09 11:29:16;;;;;;;;;;;;;;;7.26;50.95;99934.94;5049445;28;19929;-54
2022/12/09 11:31:42;;;;;;;;;;;;;;;7.31;50.50;99930.53;5044714;28;19917;-55
2022/12/09 11:34:27;;;;;;;;;;;;;;;7.29;50.34;99929.66;5039646;28;19931;-53
2022/12/09 11:36:54;;;;;;;;;;;;;;;7.33;50.76;99931.34;5039049;28;19952;-56
2022/12/09 11:39:27;;;;;;;;;;;;;;;7.38;50.75;99932.13;5038112;28;20226;-55
2022/12/09 11:42:13;;;;;;;;;;;;;;;7.40;50.66;99931.22;5047013;28;19917;-55
2022/12/09 11:44:40;;;;;;;;;;;;;;;7.43;50.42;99932.09;5038143;28;19928;-55
2022/12/09 11:47:10;;;;;;;;;;;;;;;7.35;50.17;99934.81;5038951;28;19942;-54
2022/12/09 11:49:55;;;;;;;;;;;;;;;7.28;50.57;99928.81;5037161;28;19921;-56
2022/12/09 11:52:21;;;;;;;;;;;;;;;7.25;50.42;99934.06;5037827;28;19964;-56
2022/12/09 11:55:07;;;;;;;;;;;;;;;7.22;50.43;99939.38;5039697;28;19998;-56
2022/12/09 11:57:38;;;;;;;;;;;;;;;7.26;50.61;99932.31;5037950;28;19921;-53
2022/12/09 12:00:16;;;;;;;;;;;;;;;7.27;50.29;99926.25;5038784;28;19927;-54
2022/12/09 12:02:44;;;;;;;;;;;;;;;7.20;50.23;99930.69;5039191;28;19924;-52
2022/12/09 12:05:39;;;;;;;;;;;;;;;7.12;50.49;99928.19;5043814;28;19993;-53
2022/12/09 12:08:07;;;;;;;;;;;;;;;7.03;50.23;99932.69;5038924;28;19921;-52
2022/12/09 12:10:39;;;;;;;;;;;;;;;6.94;51.00;99932.78;5052099;28;19924;-53
2022/12/09 12:13:13;;;;;;;;;;;;;;;6.98;51.29;99927.53;5041689;28;19987;-54
2022/12/09 12:15:57;;;;;;;;;;;;;;;7.00;51.15;99933.59;5040318;28;19921;-54
2022/12/09 12:18:25;;;;;;;;;;;;;;;6.99;51.01;99937.09;5040796;28;19921;-56
2022/12/09 12:20:59;;;;;;;;;;;;;;;6.95;50.68;99938.03;5034989;28;19940;-54
2022/12/09 12:23:47;;;;;;;;;;;;;;;6.94;51.18;99938.88;5034871;28;20377;-53
2022/12/09 12:26:19;;;;;;;;;;;;;;;6.93;51.11;99942.38;5052537;28;19916;-57
2022/12/09 12:28:56;;;;;;;;;;;;;;;6.98;51.10;99940.59;5054626;28;19969;-53
2022/12/09 12:31:40;;;;;;;;;;;;;;;6.95;51.23;99940.63;5055386;28;19917;-56
2022/12/09 12:34:09;;;;;;;;;;;;;;;6.91;51.31;99944.16;5055292;28;20329;-54
2022/12/09 12:36:34;;;;;;;;;;;;;;;6.89;50.88;99946.78;5054085;28;19916;-53
2022/12/09 12:39:03;;;;;;;;;;;;;;;6.87;51.03;99940.72;5055099;28;20271;-56
2022/12/09 12:41:43;;;;;;;;;;;;;;;6.82;50.94;99939.03;5055238;28;19924;-54
2022/12/09 12:47:05;;;;;;;;;;;;;;;6.83;51.74;99932.97;5055317;28;19979;-56
2022/12/09 12:49:43;;;;;;;;;;;;;;;6.82;51.94;99929.50;5055587;28;19970;-55
2022/12/09 12:52:27;;;;;;;;;;;;;;;6.75;51.36;99921.75;5053717;28;20297;-55
2022/12/09 12:54:53;;;;;;;;;;;;;;;6.72;51.58;99921.78;5052223;28;20327;-55
2022/12/09 12:57:26;;;;;;;;;;;;;;;6.68;51.81;99925.34;5053742;28;19947;-55
2022/12/09 12:59:54;;;;;;;;;;;;;;;6.62;51.98;99921.94;5054813;28;19947;-56
2022/12/09 13:02:28;;;;;;;;;;;;;;;6.60;51.99;99922.81;5049818;28;19963;-54
2022/12/09 13:04:59;;;;;;;;;;;;;;;6.53;51.57;99927.25;5054398;28;20024;-54